createdAt,value
2019-03-17T00:02:50.272Z,9.25
2019-03-17T00:05:57.063Z,9.10
2019-03-17T00:09:06.347Z,9.29
2019-03-17T00:12:22.880Z,9.32
2019-03-17T00:15:30.025Z,9.28
2019-03-17T00:18:37.158Z,9.29
2019-03-17T00:21:44.527Z,9.31
2019-03-17T00:25:09.139Z,9.25
2019-03-17T00:28:09.985Z,9.05
2019-03-17T00:31:23.631Z,9.30
2019-03-17T00:34:44.018Z,9.31
2019-03-17T00:37:53.925Z,9.29
2019-03-17T00:41:10.696Z,9.31
2019-03-17T00:44:17.827Z,9.23
2019-03-17T00:47:25.061Z,9.34
2019-03-17T00:50:32.322Z,9.36
2019-03-17T00:53:49.011Z,9.52
2019-03-17T00:56:56.417Z,9.39
2019-03-17T01:00:13.336Z,9.34
2019-03-17T01:03:29.812Z,9.44
2019-03-17T01:06:36.963Z,9.35
2019-03-17T01:09:44.150Z,9.39
2019-03-17T01:12:51.358Z,9.51
2019-03-17T01:15:58.591Z,9.49
2019-03-17T01:19:05.815Z,9.41
2019-03-17T01:22:13.200Z,9.51
2019-03-17T01:25:18.726Z,9.45
2019-03-17T01:28:41.372Z,9.45
2019-03-17T01:31:48.623Z,9.37
2019-03-17T01:35:08.247Z,9.42
2019-03-17T01:38:04.726Z,9.43
2019-03-17T01:41:21.344Z,9.50
2019-03-17T01:44:28.634Z,9.42
2019-03-17T01:47:35.834Z,9.53
2019-03-17T01:50:43.029Z,9.51
2019-03-17T01:53:50.206Z,9.59
2019-03-17T01:56:57.327Z,9.26
2019-03-17T02:00:04.911Z,9.43
2019-03-17T02:03:21.353Z,9.48
2019-03-17T02:06:28.474Z,9.47
2019-03-17T02:09:35.728Z,9.38
2019-03-17T02:12:42.947Z,9.40
2019-03-17T02:15:50.360Z,9.37
2019-03-17T02:19:06.980Z,9.31
2019-03-17T02:22:14.174Z,9.27
2019-03-17T02:25:21.387Z,9.39
2019-03-17T02:28:28.514Z,9.31
2019-03-17T02:31:35.686Z,9.43
2019-03-17T02:34:42.823Z,9.41
2019-03-17T02:37:49.941Z,9.55
2019-03-17T02:40:57.331Z,9.39
2019-03-17T02:44:04.548Z,9.43
2019-03-17T02:47:11.883Z,9.46
2019-03-17T02:50:28.485Z,9.37
2019-03-17T02:53:35.604Z,9.36
2019-03-17T02:56:42.726Z,9.33
2019-03-17T02:59:50.029Z,9.31
2019-03-17T03:02:57.458Z,9.31
2019-03-17T03:06:20.165Z,9.46
2019-03-17T03:09:36.846Z,9.44
2019-03-17T03:12:44.069Z,9.37
2019-03-17T03:15:51.244Z,9.43
2019-03-17T03:18:58.368Z,9.29
2019-03-17T03:22:05.489Z,9.54
2019-03-17T03:25:12.691Z,9.40
2019-03-17T03:28:20.517Z,9.42
2019-03-17T03:31:37.367Z,9.46
2019-03-17T03:34:53.646Z,9.49
2019-03-17T03:38:00.903Z,9.42
2019-03-17T03:41:17.687Z,9.45
2019-03-17T03:44:24.820Z,9.39
2019-03-17T03:47:31.995Z,9.34
2019-03-17T03:50:39.110Z,9.52
2019-03-17T03:53:46.443Z,9.40
2019-03-17T03:56:53.663Z,9.40
2019-03-17T04:00:00.915Z,9.44
2019-03-17T04:03:08.143Z,9.37
2019-03-17T04:06:26.393Z,9.25
2019-03-17T04:09:24.104Z,9.27
2019-03-17T04:12:30.261Z,9.33
2019-03-17T04:15:37.485Z,9.24
2019-03-17T04:18:44.721Z,9.25
2019-03-17T04:21:51.848Z,9.19
2019-03-17T04:24:59.055Z,9.16
2019-03-17T04:28:06.602Z,9.09
2019-03-17T04:31:14.736Z,9.00
2019-03-17T04:34:31.237Z,9.07
2019-03-17T04:37:38.619Z,8.99
2019-03-17T04:40:55.218Z,8.97
2019-03-17T04:44:02.455Z,8.86
2019-03-17T04:47:09.604Z,9.01
2019-03-17T04:50:16.903Z,8.94
2019-03-17T04:53:24.086Z,8.92
2019-03-17T04:56:40.793Z,9.16
2019-03-17T04:59:47.921Z,9.23
2019-03-17T05:02:55.079Z,9.06
2019-03-17T05:06:02.096Z,9.29
2019-03-17T05:09:09.298Z,9.23
2019-03-17T05:12:16.592Z,9.33
2019-03-17T05:15:23.866Z,9.37
2019-03-17T05:18:31.006Z,9.40
2019-03-17T05:21:38.304Z,9.27
2019-03-17T05:24:45.539Z,9.30
2019-03-17T05:27:52.670Z,9.26
2019-03-17T05:30:59.878Z,9.30
2019-03-17T05:34:07.117Z,9.24
2019-03-17T05:37:14.441Z,9.33
2019-03-17T05:40:21.934Z,9.42
2019-03-17T05:43:38.382Z,9.30
2019-03-17T05:46:45.602Z,9.36
2019-03-17T05:49:52.741Z,9.25
2019-03-17T05:52:59.966Z,9.30
2019-03-17T05:56:07.220Z,9.37
2019-03-17T05:59:14.491Z,9.29
2019-03-17T06:02:21.707Z,9.25
2019-03-17T06:05:38.363Z,9.17
2019-03-17T06:08:45.538Z,8.99
2019-03-17T06:11:52.663Z,8.98
2019-03-17T06:14:59.826Z,9.01
2019-03-17T06:18:07.051Z,8.99
2019-03-17T06:21:14.258Z,8.93
2019-03-17T06:24:21.449Z,8.89
2019-03-17T06:27:28.585Z,8.85
2019-03-17T06:30:35.710Z,8.89
2019-03-17T06:33:43.020Z,8.91
2019-03-17T06:36:50.135Z,8.97
2019-03-17T06:39:57.402Z,8.97
2019-03-17T06:43:04.708Z,8.82
2019-03-17T06:46:12.056Z,8.96
2019-03-17T06:49:19.276Z,8.83
2019-03-17T06:52:36.380Z,8.90
2019-03-17T06:55:52.751Z,8.89
2019-03-17T06:58:59.912Z,8.81
2019-03-17T07:02:07.310Z,8.73
2019-03-17T07:05:23.983Z,7.77
2019-03-17T07:08:31.160Z,7.29
2019-03-17T07:11:38.379Z,7.29
2019-03-17T07:14:45.520Z,7.02
2019-03-17T07:17:52.806Z,6.94
2019-03-17T07:21:09.496Z,6.91
2019-03-17T07:24:16.618Z,6.96
2019-03-17T07:27:23.840Z,6.94
2019-03-17T07:30:31.044Z,6.78
2019-03-17T07:33:38.163Z,6.77
2019-03-17T07:36:45.378Z,6.83
2019-03-17T07:39:52.583Z,6.73
2019-03-17T07:42:59.808Z,6.76
2019-03-17T07:46:06.936Z,6.77
2019-03-17T07:49:14.220Z,6.64
2019-03-17T07:52:21.322Z,6.69
2019-03-17T07:55:28.543Z,6.65
2019-03-17T07:58:35.691Z,6.47
2019-03-17T08:01:42.819Z,6.52
2019-03-17T08:04:50.270Z,6.54
2019-03-17T08:08:08.685Z,6.45
2019-03-17T08:11:06.352Z,6.48
2019-03-17T08:14:14.021Z,6.47
2019-03-17T08:17:30.391Z,6.41
2019-03-17T08:20:37.608Z,6.33
2019-03-17T08:23:44.774Z,6.44
2019-03-17T08:27:01.940Z,6.55
2019-03-17T08:30:18.632Z,6.50
2019-03-17T08:33:35.107Z,6.56
2019-03-17T08:36:42.266Z,6.43
2019-03-17T08:39:48.345Z,6.52
2019-03-17T08:43:04.667Z,6.50
2019-03-17T08:46:11.787Z,6.49
2019-03-17T08:49:18.928Z,6.45
2019-03-17T08:52:26.150Z,6.55
2019-03-17T08:55:33.370Z,6.45
2019-03-17T08:58:40.601Z,6.59
2019-03-17T09:01:47.874Z,6.68
2019-03-17T09:05:04.962Z,6.75
2019-03-17T09:08:33.955Z,6.75
2019-03-17T09:11:30.287Z,6.69
2019-03-17T09:14:46.983Z,6.78
2019-03-17T09:17:54.308Z,6.68
2019-03-17T09:21:11.000Z,6.81
2019-03-17T09:24:18.201Z,6.67
2019-03-17T09:27:25.364Z,6.73
2019-03-17T09:30:32.528Z,6.72
2019-03-17T09:33:39.745Z,6.77
2019-03-17T09:36:46.952Z,6.88
2019-03-17T09:39:54.086Z,6.80
2019-03-17T09:43:01.228Z,6.77
2019-03-17T09:46:08.486Z,6.94
2019-03-17T09:49:15.618Z,6.89
2019-03-17T09:52:22.949Z,6.87
2019-03-17T09:55:30.073Z,6.84
2019-03-17T09:58:37.655Z,6.78
2019-03-17T10:01:54.419Z,6.88
2019-03-17T10:05:11.052Z,6.80
2019-03-17T10:08:27.643Z,6.80
2019-03-17T10:11:34.866Z,6.76
2019-03-17T10:14:42.002Z,6.65
2019-03-17T10:17:49.225Z,6.75
2019-03-17T10:21:06.087Z,6.80
2019-03-17T10:24:13.310Z,6.77
2019-03-17T10:27:29.976Z,6.91
2019-03-17T10:30:37.165Z,6.85
2019-03-17T10:33:45.750Z,6.94
2019-03-17T10:36:52.943Z,6.89
2019-03-17T10:39:59.598Z,6.84
2019-03-17T10:43:06.767Z,6.99
2019-03-17T10:46:13.905Z,6.94
2019-03-17T10:49:21.945Z,6.94
2019-03-17T10:52:29.072Z,6.96
2019-03-17T10:55:36.211Z,7.01
2019-03-17T10:58:43.335Z,7.19
2019-03-17T11:01:50.499Z,7.32
2019-03-17T11:04:57.624Z,7.50
2019-03-17T11:08:04.966Z,7.46
2019-03-17T11:11:12.508Z,7.55
2019-03-17T11:14:19.634Z,7.51
2019-03-17T11:17:26.760Z,7.38
2019-03-17T11:20:34.006Z,7.46
2019-03-17T11:23:41.129Z,7.56
2019-03-17T11:26:48.465Z,7.51
2019-03-17T11:30:05.979Z,7.35
2019-03-17T11:33:13.205Z,7.50
2019-03-17T11:36:20.366Z,7.31
2019-03-17T11:39:37.196Z,7.27
2019-03-17T11:42:36.453Z,7.37
2019-03-17T11:45:43.785Z,7.49
2019-03-17T11:48:51.056Z,7.73
2019-03-17T11:51:58.367Z,7.64
2019-03-17T11:55:06.374Z,8.02
2019-03-17T11:58:22.891Z,8.29
2019-03-17T12:01:39.642Z,8.53
2019-03-17T12:04:46.761Z,8.47
2019-03-17T12:07:53.946Z,8.28
2019-03-17T12:11:01.171Z,8.07
2019-03-17T12:14:09.879Z,7.87
2019-03-17T12:17:17.363Z,7.63
2019-03-17T12:20:34.052Z,8.24
2019-03-17T12:23:41.331Z,9.26
2019-03-17T12:26:48.458Z,9.53
2019-03-17T12:29:55.662Z,9.42
2019-03-17T12:33:02.890Z,9.59
2019-03-17T12:36:10.269Z,10.03
2019-03-17T12:39:16.970Z,9.38
2019-03-17T12:42:24.180Z,8.90
2019-03-17T12:45:31.456Z,9.01
2019-03-17T12:48:38.693Z,8.53
2019-03-17T12:51:45.914Z,8.53
2019-03-17T12:54:53.112Z,8.28
2019-03-17T12:58:00.541Z,8.25
2019-03-17T13:01:07.684Z,8.12
2019-03-17T13:04:14.910Z,7.98
2019-03-17T13:07:22.041Z,7.95
2019-03-17T13:10:29.404Z,7.93
2019-03-17T13:13:46.009Z,8.03
2019-03-17T13:16:53.139Z,8.08
2019-03-17T13:20:00.384Z,8.06
2019-03-17T13:23:07.554Z,7.97
2019-03-17T13:26:14.785Z,7.78
2019-03-17T13:29:21.911Z,7.94
2019-03-17T13:32:29.237Z,7.92
2019-03-17T13:35:36.382Z,7.81
2019-03-17T13:38:43.666Z,6.59
2019-03-17T13:42:00.375Z,6.11
2019-03-17T13:45:08.147Z,6.01
2019-03-17T13:48:15.363Z,5.98
2019-03-17T13:51:22.679Z,6.16
2019-03-17T13:54:29.378Z,6.61
2019-03-17T13:57:57.007Z,7.06
2019-03-17T14:01:04.323Z,7.37
2019-03-17T14:04:11.438Z,7.31
2019-03-17T14:07:18.773Z,7.36
2019-03-17T14:10:25.902Z,7.36
2019-03-17T14:13:33.280Z,7.27
2019-03-17T14:16:40.438Z,7.13
2019-03-17T14:19:47.940Z,7.12
2019-03-17T14:22:55.065Z,7.17
2019-03-17T14:26:02.188Z,7.06
2019-03-17T14:29:09.663Z,7.14
2019-03-17T14:32:16.779Z,7.16
2019-03-17T14:35:24.039Z,7.56
2019-03-17T14:38:31.296Z,7.66
2019-03-17T14:41:38.054Z,7.44
2019-03-17T14:44:45.346Z,7.18
2019-03-17T14:47:52.483Z,6.92
2019-03-17T14:50:59.604Z,6.80
2019-03-17T14:54:06.871Z,6.60
2019-03-17T14:57:13.998Z,6.53
2019-03-17T15:00:21.204Z,6.39
2019-03-17T15:03:28.324Z,6.27
2019-03-17T15:06:35.607Z,6.15
2019-03-17T15:09:42.753Z,6.26
2019-03-17T15:12:49.966Z,6.30
2019-03-17T15:16:02.753Z,6.30
2019-03-17T15:19:06.412Z,6.31
2019-03-17T15:22:13.606Z,6.27
2019-03-17T15:25:20.704Z,6.49
2019-03-17T15:28:27.878Z,6.62
2019-03-17T15:31:35.012Z,6.52
2019-03-17T15:34:42.199Z,6.59
2019-03-17T15:37:49.513Z,6.62
2019-03-17T15:40:56.809Z,6.57
2019-03-17T15:44:04.126Z,6.57
2019-03-17T15:47:11.255Z,6.62
2019-03-17T15:50:18.521Z,6.55
2019-03-17T15:53:25.765Z,6.63
2019-03-17T15:56:42.356Z,6.81
2019-03-17T15:59:49.560Z,6.70
2019-03-17T16:02:56.685Z,6.80
2019-03-17T16:06:03.956Z,6.91
2019-03-17T16:09:11.146Z,6.89
2019-03-17T16:12:18.430Z,6.97
2019-03-17T16:15:35.216Z,7.09
2019-03-17T16:18:42.376Z,7.05
2019-03-17T16:21:49.594Z,6.95
2019-03-17T16:25:06.853Z,6.84
2019-03-17T16:28:14.254Z,6.81
2019-03-17T16:31:21.495Z,6.89
2019-03-17T16:34:28.679Z,6.88
2019-03-17T16:37:35.887Z,6.86
2019-03-17T16:40:43.095Z,6.86
2019-03-17T16:43:50.379Z,6.90
2019-03-17T16:46:57.742Z,6.83
2019-03-17T16:50:06.170Z,6.70
2019-03-17T16:53:13.368Z,6.66
2019-03-17T16:56:20.482Z,6.56
2019-03-17T16:59:36.728Z,6.79
2019-03-17T17:02:44.283Z,6.58
2019-03-17T17:06:00.840Z,6.56
2019-03-17T17:09:08.242Z,6.56
2019-03-17T17:12:24.712Z,6.50
2019-03-17T17:15:32.147Z,6.48
2019-03-17T17:18:48.744Z,6.55
2019-03-17T17:21:58.602Z,6.53
2019-03-17T17:25:14.436Z,6.63
2019-03-17T17:28:31.039Z,6.50
2019-03-17T17:31:38.276Z,6.18
2019-03-17T17:34:45.430Z,6.31
2019-03-17T17:37:52.838Z,6.34
2019-03-17T17:41:11.249Z,6.35
2019-03-17T17:44:37.816Z,6.27
2019-03-17T17:47:45.189Z,6.13
2019-03-17T17:51:01.783Z,6.20
2019-03-17T17:54:09.017Z,6.03
2019-03-17T17:57:16.225Z,6.16
2019-03-17T18:00:23.512Z,6.16
2019-03-17T18:03:30.630Z,6.17
2019-03-17T18:06:37.816Z,6.20
2019-03-17T18:09:44.950Z,6.24
2019-03-17T18:12:52.265Z,6.31
2019-03-17T18:15:59.390Z,6.27
2019-03-17T18:19:06.602Z,6.15
2019-03-17T18:22:13.922Z,6.24
2019-03-17T18:25:21.085Z,6.18
2019-03-17T18:28:37.897Z,6.12
2019-03-17T18:31:45.127Z,5.99
2019-03-17T18:35:01.751Z,6.23
2019-03-17T18:38:09.091Z,5.99
2019-03-17T18:41:16.307Z,5.82
2019-03-17T18:44:32.971Z,6.20
2019-03-17T18:47:40.224Z,6.07
2019-03-17T18:50:45.835Z,5.94
2019-03-17T18:53:53.061Z,6.03
2019-03-17T18:57:00.335Z,5.90
2019-03-17T19:00:17.604Z,6.00
2019-03-17T19:03:24.849Z,6.01
2019-03-17T19:06:32.256Z,6.03
2019-03-17T19:09:39.482Z,6.09
2019-03-17T19:12:47.086Z,5.97
2019-03-17T19:15:54.210Z,6.00
2019-03-17T19:19:01.323Z,5.94
2019-03-17T19:22:08.482Z,6.04
2019-03-17T19:25:16.044Z,5.84
2019-03-17T19:28:23.244Z,5.83
2019-03-17T19:31:30.331Z,5.71
2019-03-17T19:34:37.559Z,5.77
2019-03-17T19:37:44.785Z,5.86
2019-03-17T19:40:52.007Z,5.83
2019-03-17T19:43:59.335Z,5.92
2019-03-17T19:47:06.637Z,5.88
2019-03-17T19:50:23.474Z,5.86
2019-03-17T19:53:29.102Z,5.76
2019-03-17T19:56:45.787Z,5.71
2019-03-17T19:59:53.081Z,5.70
2019-03-17T20:03:09.809Z,5.65
2019-03-17T20:06:26.547Z,5.52
2019-03-17T20:09:33.891Z,5.51
2019-03-17T20:12:50.668Z,5.49
2019-03-17T20:16:07.223Z,5.59
2019-03-17T20:19:14.566Z,5.39
2019-03-17T20:22:31.226Z,5.56
2019-03-17T20:25:38.625Z,5.43
2019-03-17T20:28:55.141Z,5.32
2019-03-17T20:32:02.464Z,5.35
2019-03-17T20:35:09.911Z,5.26
2019-03-17T20:38:26.422Z,5.29
2019-03-17T20:41:43.139Z,5.20
2019-03-17T20:44:59.845Z,5.14
2019-03-17T20:48:07.016Z,5.10
2019-03-17T20:51:14.294Z,5.07
2019-03-17T20:54:21.478Z,5.00
2019-03-17T20:57:28.621Z,5.17
2019-03-17T21:00:35.952Z,5.09
2019-03-17T21:03:52.740Z,5.13
2019-03-17T21:06:59.871Z,4.97
2019-03-17T21:10:08.435Z,5.04
2019-03-17T21:13:15.455Z,4.95
2019-03-17T21:16:22.665Z,4.93
2019-03-17T21:19:29.848Z,5.05
2019-03-17T21:22:36.987Z,4.99
2019-03-17T21:25:45.789Z,4.96
2019-03-17T21:28:52.920Z,4.93
2019-03-17T21:32:00.319Z,4.84
2019-03-17T21:35:07.629Z,4.82
2019-03-17T21:38:14.760Z,5.01
2019-03-17T21:41:21.881Z,4.89
2019-03-17T21:44:29.108Z,4.89
2019-03-17T21:47:36.315Z,4.83
2019-03-17T21:50:43.519Z,4.89
2019-03-17T21:53:50.719Z,4.87
2019-03-17T21:56:57.904Z,4.84
2019-03-17T22:00:05.726Z,4.85
2019-03-17T22:03:22.277Z,4.82
2019-03-17T22:06:29.303Z,4.82
2019-03-17T22:09:36.534Z,4.79
2019-03-17T22:12:43.766Z,4.81
2019-03-17T22:15:50.960Z,4.78
2019-03-17T22:18:58.451Z,4.80
2019-03-17T22:22:15.047Z,4.77
2019-03-17T22:25:22.254Z,4.73
2019-03-17T22:28:29.382Z,4.74
2019-03-17T22:31:36.683Z,4.72
2019-03-17T22:34:44.402Z,4.62
2019-03-17T22:37:51.626Z,4.71
2019-03-17T22:40:58.743Z,4.69
2019-03-17T22:44:06.048Z,4.66
2019-03-17T22:47:13.270Z,4.69
2019-03-17T22:50:20.562Z,4.66
2019-03-17T22:53:27.686Z,4.63
2019-03-17T22:56:34.894Z,4.70
2019-03-17T22:59:52.552Z,4.73
2019-03-17T23:02:59.673Z,4.68
2019-03-17T23:06:06.850Z,4.76
2019-03-17T23:09:13.966Z,4.75
2019-03-17T23:12:21.085Z,4.78
2019-03-17T23:15:28.320Z,4.83
2019-03-17T23:18:35.614Z,4.78
2019-03-17T23:21:42.737Z,4.73
2019-03-17T23:24:50.597Z,4.85
2019-03-17T23:28:06.924Z,4.86
2019-03-17T23:31:14.122Z,4.86
2019-03-17T23:34:21.250Z,4.89
2019-03-17T23:37:28.369Z,4.87
2019-03-17T23:40:35.520Z,4.75
2019-03-17T23:43:42.756Z,4.64
2019-03-17T23:46:49.882Z,4.63
2019-03-17T23:49:57.668Z,4.55
2019-03-17T23:53:14.103Z,4.32
2019-03-17T23:56:21.232Z,4.20
2019-03-17T23:59:28.350Z,4.12
